Time;durP1;ratioP1;P1;durP2;ratioP2;P2;SDS_P1;SDS_P2;PMS_P1;PMS_P2;Temp;Humidity;BMP_temperature;BMP_pressure;BME280_temperature;BME280_humidity;BME280_pressure;Samples;Min_cycle;Max_cycle;Signal;HPM_P1;HPM_P2
2023/09/11 00:03:35;;;;;;;11.45;2.95;;;;;;;;;;10402852;28;20295;-74
2023/09/11 00:08:35;;;;;;;6.00;2.28;;;;;;;;;;10416193;28;20212;-74
2023/09/11 00:13:35;;;;;;;5.30;1.95;;;;;;;;;;10405147;28;20021;-73
2023/09/11 00:18:37;;;;;;;8.13;2.43;;;;;;;;;;10424657;28;20234;-73
2023/09/11 00:23:37;;;;;;;7.05;2.38;;;;;;;;;;10424161;28;20017;-74
2023/09/11 00:28:38;;;;;;;5.60;2.70;;;;;;;;;;10401825;28;20038;-74
2023/09/11 00:33:38;;;;;;;8.25;2.40;;;;;;;;;;10394257;28;20090;-73
2023/09/11 00:38:38;;;;;;;4.03;2.20;;;;;;;;;;10424205;28;20028;-74
2023/09/11 00:43:39;;;;;;;10.65;2.60;;;;;;;;;;10411737;28;20036;-74
2023/09/11 00:48:39;;;;;;;12.40;3.03;;;;;;;;;;10382512;28;20028;-74
2023/09/11 00:53:39;;;;;;;3.53;2.53;;;;;;;;;;10382666;28;20032;-72
2023/09/11 00:58:40;;;;;;;3.50;2.13;;;;;;;;;;10390299;28;20017;-73
2023/09/11 01:03:40;;;;;;;10.93;2.58;;;;;;;;;;10422491;28;20040;-73
2023/09/11 01:08:41;;;;;;;2.95;2.38;;;;;;;;;;10396643;28;20026;-72
2023/09/11 01:13:41;;;;;;;4.40;2.17;;;;;;;;;;10392433;28;20087;-74
2023/09/11 01:18:59;;;;;;;7.05;3.20;;;;;;;;;;10422186;28;20029;-74
2023/09/11 01:24:19;;;;;;;7.40;3.25;;;;;;;;;;10420883;28;20029;-74
2023/09/11 01:29:26;;;;;;;2.60;2.25;;;;;;;;;;10421895;28;20390;-73
2023/09/11 01:34:26;;;;;;;8.52;2.33;;;;;;;;;;10421400;28;20033;-74
2023/09/11 01:39:27;;;;;;;7.75;2.70;;;;;;;;;;10421643;28;20026;-74
2023/09/11 01:44:32;;;;;;;4.45;2.70;;;;;;;;;;10421421;28;20025;-74
2023/09/11 01:49:33;;;;;;;5.78;2.42;;;;;;;;;;10420907;28;20066;-73
2023/09/11 01:54:34;;;;;;;9.13;3.92;;;;;;;;;;10385956;28;20375;-74
2023/09/11 01:59:35;;;;;;;8.80;2.70;;;;;;;;;;10388206;28;20026;-73
2023/09/11 02:04:35;;;;;;;15.23;2.97;;;;;;;;;;10402517;28;20033;-73
2023/09/11 02:09:35;;;;;;;4.78;2.47;;;;;;;;;;10420286;28;20294;-72
2023/09/11 02:14:35;;;;;;;2.58;2.28;;;;;;;;;;10420157;28;20024;-73
2023/09/11 02:19:36;;;;;;;4.18;2.25;;;;;;;;;;10389363;28;20028;-73
2023/09/11 02:24:36;;;;;;;9.77;2.83;;;;;;;;;;10379004;28;20189;-73
2023/09/11 02:29:36;;;;;;;7.33;2.60;;;;;;;;;;10381048;28;20236;-73
2023/09/11 02:34:37;;;;;;;4.93;2.50;;;;;;;;;;10419129;28;20063;-73
2023/09/11 02:39:56;;;;;;;5.68;3.05;;;;;;;;;;10418985;28;20239;-73
2023/09/11 02:44:56;;;;;;;6.28;3.05;;;;;;;;;;10418837;28;20037;-73
2023/09/11 02:49:56;;;;;;;3.47;2.80;;;;;;;;;;10401062;28;20029;-73
2023/09/11 02:54:56;;;;;;;4.78;2.97;;;;;;;;;;10400721;28;20029;-73
2023/09/11 02:59:57;;;;;;;5.57;3.55;;;;;;;;;;10418525;28;20021;-73
2023/09/11 03:04:57;;;;;;;5.03;3.70;;;;;;;;;;10391742;28;20048;-73
2023/09/11 03:09:57;;;;;;;4.82;2.67;;;;;;;;;;10394694;28;20047;-72
2023/09/11 03:15:03;;;;;;;11.15;5.65;;;;;;;;;;10417584;28;20076;-73
2023/09/11 03:20:05;;;;;;;9.85;2.75;;;;;;;;;;10379106;28;20025;-73
2023/09/11 03:25:05;;;;;;;7.97;3.20;;;;;;;;;;10397583;28;20219;-74
2023/09/11 03:30:06;;;;;;;3.63;2.87;;;;;;;;;;10386382;28;20045;-73
2023/09/11 03:35:06;;;;;;;5.85;3.05;;;;;;;;;;10376662;28;20051;-73
2023/09/11 03:40:07;;;;;;;6.20;2.93;;;;;;;;;;10380439;28;20021;-73
2023/09/11 03:45:07;;;;;;;10.95;2.92;;;;;;;;;;10415927;28;20029;-73
2023/09/11 03:50:08;;;;;;;6.68;2.70;;;;;;;;;;10403165;28;20264;-73
2023/09/11 03:55:08;;;;;;;9.07;2.67;;;;;;;;;;10394637;28;20207;-73
2023/09/11 04:00:09;;;;;;;7.97;2.70;;;;;;;;;;10388433;28;20013;-73
2023/09/11 04:05:09;;;;;;;18.85;4.28;;;;;;;;;;10396993;28;20013;-77
2023/09/11 04:10:09;;;;;;;6.72;3.20;;;;;;;;;;10375494;28;20040;-76
2023/09/11 04:15:09;;;;;;;6.95;3.10;;;;;;;;;;10365727;28;20022;-75
2023/09/11 04:20:10;;;;;;;11.82;4.13;;;;;;;;;;10366056;28;20033;-76
2023/09/11 04:25:10;;;;;;;12.27;3.50;;;;;;;;;;10364655;28;20535;-76
2023/09/11 04:30:10;;;;;;;9.57;3.83;;;;;;;;;;10358411;28;20458;-76
2023/09/11 04:35:11;;;;;;;15.82;3.95;;;;;;;;;;10371209;28;20033;-73
2023/09/11 04:40:11;;;;;;;6.22;3.60;;;;;;;;;;10364956;28;20026;-73
2023/09/11 04:45:11;;;;;;;11.05;3.67;;;;;;;;;;10369271;28;20053;-74
2023/09/11 04:50:12;;;;;;;10.50;4.63;;;;;;;;;;10373363;28;20270;-73
2023/09/11 04:55:12;;;;;;;7.30;3.72;;;;;;;;;;10371102;28;20018;-73
2023/09/11 05:00:13;;;;;;;9.50;4.50;;;;;;;;;;10359101;28;20025;-73
2023/09/11 05:05:13;;;;;;;12.68;3.45;;;;;;;;;;10375734;28;20283;-73
2023/09/11 05:10:14;;;;;;;8.10;3.37;;;;;;;;;;10378442;28;20073;-73
2023/09/11 05:15:15;;;;;;;7.30;3.53;;;;;;;;;;10372826;28;20550;-74
2023/09/11 05:20:15;;;;;;;10.23;3.83;;;;;;;;;;10373868;28;20037;-74
2023/09/11 05:25:15;;;;;;;6.27;4.03;;;;;;;;;;10368701;28;20320;-75
2023/09/11 05:30:16;;;;;;;9.17;3.77;;;;;;;;;;10372664;28;20610;-75
2023/09/11 05:35:16;;;;;;;18.70;4.67;;;;;;;;;;10376907;28;20025;-81
2023/09/11 05:40:16;;;;;;;7.90;4.17;;;;;;;;;;10389393;28;20315;-71
2023/09/11 05:45:16;;;;;;;10.15;4.53;;;;;;;;;;10375230;28;20040;-76
2023/09/11 05:50:17;;;;;;;8.40;4.07;;;;;;;;;;10378175;28;20412;-77
2023/09/11 05:55:17;;;;;;;10.25;4.18;;;;;;;;;;10378664;28;20288;-74
2023/09/11 06:00:19;;;;;;;8.70;3.95;;;;;;;;;;10376104;28;20185;-77
2023/09/11 06:05:19;;;;;;;8.52;3.88;;;;;;;;;;10377272;28;20018;-77
2023/09/11 06:10:20;;;;;;;9.63;4.13;;;;;;;;;;10359697;28;20030;-71
2023/09/11 06:15:20;;;;;;;12.27;4.83;;;;;;;;;;10377026;28;20061;-73
2023/09/11 06:20:21;;;;;;;13.57;4.97;;;;;;;;;;10371779;28;20030;-73
2023/09/11 06:25:21;;;;;;;14.52;4.95;;;;;;;;;;10372053;28;20030;-73
2023/09/11 06:30:21;;;;;;;11.98;4.93;;;;;;;;;;10372091;28;20398;-73
2023/09/11 06:35:22;;;;;;;12.23;4.75;;;;;;;;;;10364998;28;20024;-73
2023/09/11 06:40:22;;;;;;;16.30;4.05;;;;;;;;;;10374086;28;20021;-74
2023/09/11 06:45:23;;;;;;;14.63;4.22;;;;;;;;;;10370001;28;20084;-73
2023/09/11 06:50:23;;;;;;;21.00;4.80;;;;;;;;;;10374359;28;20024;-73
2023/09/11 06:55:23;;;;;;;14.70;4.25;;;;;;;;;;10370253;28;20026;-73
2023/09/11 07:00:24;;;;;;;13.63;4.43;;;;;;;;;;10373781;28;20557;-73
2023/09/11 07:05:26;;;;;;;12.27;4.43;;;;;;;;;;10372374;28;20033;-73
2023/09/11 07:10:26;;;;;;;7.88;3.70;;;;;;;;;;10370978;28;20601;-73
2023/09/11 07:15:27;;;;;;;7.90;3.15;;;;;;;;;;10368450;28;20021;-73
2023/09/11 07:20:27;;;;;;;15.10;3.70;;;;;;;;;;10366873;28;20009;-73
2023/09/11 07:25:28;;;;;;;17.90;3.42;;;;;;;;;;10368916;28;20053;-73
2023/09/11 07:30:28;;;;;;;6.95;2.78;;;;;;;;;;10367111;28;20038;-72
2023/09/11 07:35:28;;;;;;;8.37;3.20;;;;;;;;;;10372452;28;20044;-73
2023/09/11 07:40:29;;;;;;;7.40;2.95;;;;;;;;;;10361996;28;20056;-73
2023/09/11 07:45:29;;;;;;;12.63;3.07;;;;;;;;;;10369263;28;20327;-73
2023/09/11 07:50:29;;;;;;;12.43;3.03;;;;;;;;;;10373385;28;20033;-72
2023/09/11 07:55:29;;;;;;;10.77;2.85;;;;;;;;;;10369317;28;20395;-73
2023/09/11 08:00:30;;;;;;;8.40;2.90;;;;;;;;;;10370596;28;20332;-73
2023/09/11 08:05:31;;;;;;;11.73;3.03;;;;;;;;;;10368663;28;20022;-72
2023/09/11 08:10:31;;;;;;;7.70;2.10;;;;;;;;;;10369376;28;20024;-72
2023/09/11 08:15:31;;;;;;;7.78;2.65;;;;;;;;;;10370486;28;20474;-72
2023/09/11 08:20:32;;;;;;;15.15;3.15;;;;;;;;;;10371690;28;20037;-72
2023/09/11 08:25:32;;;;;;;6.93;2.40;;;;;;;;;;10369503;28;20084;-78
2023/09/11 08:30:32;;;;;;;14.70;3.30;;;;;;;;;;10369325;28;20048;-79
2023/09/11 08:35:32;;;;;;;15.18;2.67;;;;;;;;;;10365011;28;20381;-79
2023/09/11 08:40:33;;;;;;;4.07;1.90;;;;;;;;;;10379103;28;20080;-80
2023/09/11 08:45:34;;;;;;;12.93;2.65;;;;;;;;;;10373195;28;20002;-79
2023/09/11 08:50:35;;;;;;;7.75;3.47;;;;;;;;;;10370246;28;20026;-77
2023/09/11 08:55:35;;;;;;;11.95;3.45;;;;;;;;;;10373002;28;20241;-77
2023/09/11 09:00:35;;;;;;;10.35;2.88;;;;;;;;;;10378182;28;20076;-76
2023/09/11 09:05:36;;;;;;;6.22;2.75;;;;;;;;;;10375080;28;20029;-75
2023/09/11 09:10:36;;;;;;;3.55;1.90;;;;;;;;;;10374556;28;20247;-75
2023/09/11 09:15:40;;;;;;;10.32;2.17;;;;;;;;;;10372994;28;20037;-75
2023/09/11 09:20:40;;;;;;;4.78;2.22;;;;;;;;;;10374368;28;20076;-75
2023/09/11 09:25:41;;;;;;;7.57;2.35;;;;;;;;;;10375515;28;20093;-76
2023/09/11 09:30:42;;;;;;;8.07;2.40;;;;;;;;;;10377979;28;20029;-77
2023/09/11 09:35:43;;;;;;;10.00;2.80;;;;;;;;;;10376646;28;20034;-76
2023/09/11 09:40:44;;;;;;;4.07;2.33;;;;;;;;;;10373439;28;20016;-77
2023/09/11 09:45:45;;;;;;;3.92;2.00;;;;;;;;;;10375541;28;20029;-77
2023/09/11 09:51:05;;;;;;;8.60;2.05;;;;;;;;;;10377771;28;20080;-77
2023/09/11 09:56:07;;;;;;;7.88;1.92;;;;;;;;;;10373213;28;20097;-77
2023/09/11 10:01:18;;;;;;;7.45;1.55;;;;;;;;;;10373413;28;20022;-77
2023/09/11 10:06:19;;;;;;;8.73;1.95;;;;;;;;;;10375794;28;20080;-77
2023/09/11 10:11:29;;;;;;;3.80;1.70;;;;;;;;;;10372486;28;20032;-77
2023/09/11 10:16:33;;;;;;;3.42;1.50;;;;;;;;;;10376879;28;20040;-77
2023/09/11 10:21:34;;;;;;;6.90;1.90;;;;;;;;;;10374856;28;20252;-77
2023/09/11 10:26:40;;;;;;;4.00;1.48;;;;;;;;;;10373331;28;20025;-77
2023/09/11 10:31:48;;;;;;;4.85;1.52;;;;;;;;;;10368938;28;20351;-77
2023/09/11 10:36:53;;;;;;;5.63;1.60;;;;;;;;;;10373109;28;20481;-77
2023/09/11 10:41:53;;;;;;;6.47;1.67;;;;;;;;;;10368845;28;20022;-77
2023/09/11 10:46:53;;;;;;;7.03;1.80;;;;;;;;;;10373668;28;20339;-72
2023/09/11 10:51:54;;;;;;;3.10;1.63;;;;;;;;;;10370569;28;20021;-74
2023/09/11 10:56:55;;;;;;;1.85;1.27;;;;;;;;;;10367210;28;20013;-73
2023/09/11 11:01:56;;;;;;;4.70;1.15;;;;;;;;;;10373113;28;20037;-73
2023/09/11 11:06:57;;;;;;;5.90;1.70;;;;;;;;;;10369797;28;20017;-73
2023/09/11 11:12:10;;;;;;;4.90;1.67;;;;;;;;;;10370950;28;20119;-73
2023/09/11 11:17:11;;;;;;;6.05;1.92;;;;;;;;;;10366499;28;20116;-73
2023/09/11 11:22:30;;;;;;;4.55;1.88;;;;;;;;;;10369568;28;20014;-73
2023/09/11 11:27:30;;;;;;;5.50;1.92;;;;;;;;;;10369578;28;20120;-74
2023/09/11 11:32:32;;;;;;;12.67;2.60;;;;;;;;;;10368537;28;20024;-73
2023/09/11 11:37:35;;;;;;;6.28;2.42;;;;;;;;;;10369589;28;20081;-73
2023/09/11 11:42:39;;;;;;;11.32;2.50;;;;;;;;;;10372570;28;20009;-70
2023/09/11 11:47:40;;;;;;;5.70;2.60;;;;;;;;;;10375864;28;20015;-80
2023/09/11 11:52:45;;;;;;;7.65;2.33;;;;;;;;;;10369524;28;20022;-78
2023/09/11 11:57:48;;;;;;;4.85;2.55;;;;;;;;;;10376606;28;20049;-81
2023/09/11 12:02:49;;;;;;;12.20;3.10;;;;;;;;;;10379727;28;20023;-82
2023/09/11 12:07:50;;;;;;;5.57;2.67;;;;;;;;;;10380044;28;20656;-81
2023/09/11 12:12:50;;;;;;;10.18;2.55;;;;;;;;;;10385806;28;20017;-78
2023/09/11 12:17:50;;;;;;;4.03;2.00;;;;;;;;;;10373034;28;20587;-78
2023/09/11 12:22:51;;;;;;;5.40;2.23;;;;;;;;;;10385347;28;20138;-78
2023/09/11 12:27:51;;;;;;;9.77;2.50;;;;;;;;;;10386361;28;20037;-79
2023/09/11 12:32:51;;;;;;;7.03;2.70;;;;;;;;;;10384988;28;20338;-79
2023/09/11 12:37:52;;;;;;;7.55;2.65;;;;;;;;;;10367908;28;20021;-78
2023/09/11 12:42:52;;;;;;;4.67;2.23;;;;;;;;;;10370537;28;20033;-79
2023/09/11 12:47:53;;;;;;;3.88;2.47;;;;;;;;;;10381120;28;20020;-78
2023/09/11 12:52:53;;;;;;;7.45;2.38;;;;;;;;;;10387513;28;20029;-78
2023/09/11 12:58:00;;;;;;;8.18;2.28;;;;;;;;;;10384172;28;20029;-79
2023/09/11 13:03:02;;;;;;;8.25;2.00;;;;;;;;;;10378376;28;20315;-78
2023/09/11 13:08:02;;;;;;;4.18;1.98;;;;;;;;;;10380489;28;20029;-76
2023/09/11 13:13:04;;;;;;;6.03;2.47;;;;;;;;;;10377707;28;20045;-76
2023/09/11 13:18:05;;;;;;;9.27;1.50;;;;;;;;;;10375403;28;20311;-78
2023/09/11 13:23:05;;;;;;;4.97;2.13;;;;;;;;;;10377528;28;20346;-78
2023/09/11 13:28:05;;;;;;;7.90;2.10;;;;;;;;;;10379673;28;20045;-76
2023/09/11 13:33:06;;;;;;;9.40;1.90;;;;;;;;;;10377421;28;20189;-77
2023/09/11 13:38:06;;;;;;;3.95;2.10;;;;;;;;;;10379701;28;20021;-78
2023/09/11 13:43:06;;;;;;;7.47;2.40;;;;;;;;;;10378331;28;20025;-77
2023/09/11 13:48:06;;;;;;;5.07;2.13;;;;;;;;;;10382446;28;20045;-80
2023/09/11 13:53:07;;;;;;;6.72;1.92;;;;;;;;;;10377834;28;20033;-77
2023/09/11 13:58:09;;;;;;;6.68;2.25;;;;;;;;;;10386806;28;20189;-77
2023/09/11 14:03:09;;;;;;;5.18;2.10;;;;;;;;;;10371180;28;20312;-79
2023/09/11 14:08:09;;;;;;;5.50;2.75;;;;;;;;;;10365258;28;20044;-76
2023/09/11 14:13:10;;;;;;;6.20;3.83;;;;;;;;;;10378286;28;20438;-77
2023/09/11 14:18:11;;;;;;;4.30;2.35;;;;;;;;;;10367404;28;20374;-77
2023/09/11 14:23:11;;;;;;;8.37;2.80;;;;;;;;;;10369022;28;20056;-78
2023/09/11 14:28:11;;;;;;;4.60;2.40;;;;;;;;;;10374710;28;20042;-78
2023/09/11 14:33:11;;;;;;;8.23;2.17;;;;;;;;;;10373835;28;20022;-79
2023/09/11 14:38:12;;;;;;;8.35;4.75;;;;;;;;;;10374053;28;20235;-79
2023/09/11 14:43:12;;;;;;;3.90;1.93;;;;;;;;;;10373813;28;20014;-77
2023/09/11 14:48:13;;;;;;;6.70;2.40;;;;;;;;;;10358909;28;20079;-79
2023/09/11 14:53:14;;;;;;;7.93;2.58;;;;;;;;;;10373644;28;20018;-80
2023/09/11 14:58:14;;;;;;;5.38;2.58;;;;;;;;;;10373195;28;20316;-81
2023/09/11 15:03:15;;;;;;;9.27;2.43;;;;;;;;;;10374786;28;20101;-79
2023/09/11 15:08:15;;;;;;;12.48;6.22;;;;;;;;;;10375577;28;20338;-80
2023/09/11 15:13:15;;;;;;;6.50;2.60;;;;;;;;;;10365633;28;20025;-78
2023/09/11 15:18:16;;;;;;;6.78;2.30;;;;;;;;;;10378008;28;20644;-78
2023/09/11 15:23:16;;;;;;;4.25;2.25;;;;;;;;;;10379023;28;20025;-79
2023/09/11 15:28:17;;;;;;;11.18;2.53;;;;;;;;;;10377901;28;20044;-79
2023/09/11 15:33:18;;;;;;;5.90;2.05;;;;;;;;;;10372463;28;20022;-79
2023/09/11 15:38:18;;;;;;;4.18;2.10;;;;;;;;;;10372858;28;20030;-79
2023/09/11 15:43:18;;;;;;;3.92;1.60;;;;;;;;;;10377765;28;20028;-81
2023/09/11 15:48:18;;;;;;;4.22;2.08;;;;;;;;;;10381727;28;20017;-79
2023/09/11 15:53:22;;;;;;;6.47;2.03;;;;;;;;;;10375096;28;20032;-80
2023/09/11 15:58:24;;;;;;;11.02;2.67;;;;;;;;;;10372463;28;20045;-80
2023/09/11 16:03:24;;;;;;;4.90;2.22;;;;;;;;;;10379454;28;20583;-80
2023/09/11 16:08:25;;;;;;;9.07;2.65;;;;;;;;;;10380212;28;20021;-79
2023/09/11 16:13:25;;;;;;;7.50;2.85;;;;;;;;;;10371999;28;20041;-80
2023/09/11 16:18:25;;;;;;;8.13;2.60;;;;;;;;;;10366505;28;20048;-79
2023/09/11 16:23:26;;;;;;;6.47;2.53;;;;;;;;;;10373052;28;20156;-79
2023/09/11 16:28:26;;;;;;;6.43;2.45;;;;;;;;;;10369423;28;20053;-79
2023/09/11 16:33:26;;;;;;;11.27;3.97;;;;;;;;;;10372922;28;20165;-80
2023/09/11 16:38:27;;;;;;;10.02;3.25;;;;;;;;;;10358073;28;20104;-80
2023/09/11 16:43:27;;;;;;;7.80;2.65;;;;;;;;;;10372005;28;20036;-79
2023/09/11 16:48:27;;;;;;;6.82;3.03;;;;;;;;;;10375324;28;20049;-79
2023/09/11 16:53:27;;;;;;;8.80;2.95;;;;;;;;;;10376576;28;20288;-79
2023/09/11 16:58:28;;;;;;;8.90;3.35;;;;;;;;;;10372604;28;20022;-79
2023/09/11 17:03:28;;;;;;;6.63;2.80;;;;;;;;;;10386010;28;20068;-78
2023/09/11 17:08:28;;;;;;;10.93;2.88;;;;;;;;;;10380554;28;20219;-78
2023/09/11 17:13:29;;;;;;;8.30;3.38;;;;;;;;;;10384485;28;20068;-78
2023/09/11 17:18:29;;;;;;;10.60;4.35;;;;;;;;;;10385985;28;20642;-75
2023/09/11 17:23:29;;;;;;;11.48;3.35;;;;;;;;;;10376164;28;20226;-78
2023/09/11 17:28:29;;;;;;;16.00;4.22;;;;;;;;;;10381125;28;20045;-79
2023/09/11 17:33:30;;;;;;;16.58;3.70;;;;;;;;;;10379906;28;20026;-77
2023/09/11 17:38:30;;;;;;;10.13;3.97;;;;;;;;;;10378163;28;20326;-76
2023/09/11 17:43:30;;;;;;;8.90;5.53;;;;;;;;;;10385108;28;20093;-75
2023/09/11 17:48:30;;;;;;;20.00;4.47;;;;;;;;;;10366561;28;20029;-77
2023/09/11 17:53:31;;;;;;;12.47;3.80;;;;;;;;;;10377491;28;20026;-73
2023/09/11 17:58:31;;;;;;;10.90;4.73;;;;;;;;;;10377505;28;20283;-76
2023/09/11 18:03:32;;;;;;;11.02;3.47;;;;;;;;;;10377641;28;20272;-75
2023/09/11 18:08:32;;;;;;;7.85;4.18;;;;;;;;;;10376918;28;20322;-78
2023/09/11 18:13:32;;;;;;;17.77;5.05;;;;;;;;;;10378757;28;20033;-80
2023/09/11 18:18:32;;;;;;;15.35;6.13;;;;;;;;;;10381825;28;20030;-73
2023/09/11 18:23:33;;;;;;;11.40;4.82;;;;;;;;;;10371641;28;20346;-75
2023/09/11 18:28:33;;;;;;;12.27;4.82;;;;;;;;;;10383074;28;20030;-79
2023/09/11 18:33:34;;;;;;;19.88;5.55;;;;;;;;;;10379587;28;20017;-79
2023/09/11 18:38:34;;;;;;;11.77;5.07;;;;;;;;;;10382693;28;20099;-73
2023/09/11 18:43:34;;;;;;;11.40;4.00;;;;;;;;;;10382458;28;20458;-75
2023/09/11 18:48:39;;;;;;;9.80;3.60;;;;;;;;;;10373814;28;20025;-82
2023/09/11 18:53:40;;;;;;;25.63;10.70;;;;;;;;;;10383993;28;20783;-83
2023/09/11 18:58:40;;;;;;;8.20;3.13;;;;;;;;;;10370753;28;20025;-79
2023/09/11 19:03:40;;;;;;;9.20;3.57;;;;;;;;;;10391761;28;20075;-81
2023/09/11 19:08:40;;;;;;;7.30;3.33;;;;;;;;;;10389765;28;20105;-82
2023/09/11 19:13:41;;;;;;;12.32;4.13;;;;;;;;;;10372657;28;20522;-81
2023/09/11 19:18:41;;;;;;;12.75;3.95;;;;;;;;;;10377490;28;20097;-76
2023/09/11 19:23:41;;;;;;;14.13;3.92;;;;;;;;;;10375661;28;20492;-74
2023/09/11 19:28:42;;;;;;;8.30;3.78;;;;;;;;;;10388952;28;20131;-80
2023/09/11 19:33:42;;;;;;;13.73;3.85;;;;;;;;;;10362999;28;20325;-80
2023/09/11 19:38:43;;;;;;;9.43;2.85;;;;;;;;;;10391459;28;20041;-78
2023/09/11 19:43:44;;;;;;;8.45;3.42;;;;;;;;;;10378735;28;20017;-80
2023/09/11 19:48:46;;;;;;;6.47;3.17;;;;;;;;;;10378683;28;20045;-80
2023/09/11 19:53:46;;;;;;;4.00;1.98;;;;;;;;;;10387520;28;20025;-79
2023/09/11 19:58:46;;;;;;;10.10;3.17;;;;;;;;;;10379085;28;20040;-77
2023/09/11 20:03:47;;;;;;;10.93;3.60;;;;;;;;;;10377109;28;20600;-75
2023/09/11 20:08:47;;;;;;;5.65;3.08;;;;;;;;;;10385842;28;20487;-85
2023/09/11 20:13:48;;;;;;;3.58;2.50;;;;;;;;;;10367891;28;20022;-75
2023/09/11 20:18:48;;;;;;;4.00;2.85;;;;;;;;;;10377571;28;20041;-75
2023/09/11 20:23:49;;;;;;;6.13;2.83;;;;;;;;;;10369069;28;20041;-76
2023/09/11 20:28:50;;;;;;;6.00;2.55;;;;;;;;;;10383322;28;20064;-83
2023/09/11 20:33:50;;;;;;;9.73;3.05;;;;;;;;;;10391638;28;20021;-87
2023/09/11 20:38:50;;;;;;;8.25;2.45;;;;;;;;;;10404486;28;20052;-87
2023/09/11 20:43:50;;;;;;;11.20;3.30;;;;;;;;;;10401240;23;20014;-77
2023/09/11 20:48:51;;;;;;;4.82;2.97;;;;;;;;;;10342905;28;20815;-81
2023/09/11 20:53:51;;;;;;;6.57;2.40;;;;;;;;;;10359547;28;20053;-77
2023/09/11 20:58:53;;;;;;;8.87;2.43;;;;;;;;;;10334011;28;20273;-76
2023/09/11 21:03:53;;;;;;;6.05;2.53;;;;;;;;;;10351872;28;20037;-81
2023/09/11 21:08:57;;;;;;;6.82;2.50;;;;;;;;;;10354102;28;20034;-73
2023/09/11 21:14:00;;;;;;;4.80;2.55;;;;;;;;;;10312945;28;20426;-73
2023/09/11 21:19:02;;;;;;;7.55;3.15;;;;;;;;;;10309761;28;20041;-75
2023/09/11 21:24:05;;;;;;;8.00;2.50;;;;;;;;;;10323394;28;20090;-75
2023/09/11 21:29:06;;;;;;;7.65;3.00;;;;;;;;;;10320918;28;20497;-77
2023/09/11 21:34:08;;;;;;;5.30;2.67;;;;;;;;;;10324846;28;20026;-75
2023/09/11 21:39:08;;;;;;;5.60;2.42;;;;;;;;;;10340424;28;20038;-73
2023/09/11 21:44:09;;;;;;;10.88;2.35;;;;;;;;;;10331004;28;20116;-78
2023/09/11 21:49:10;;;;;;;7.77;2.37;;;;;;;;;;10307731;28;20062;-71
2023/09/11 21:54:10;;;;;;;5.78;3.83;;;;;;;;;;10305180;28;20573;-75
2023/09/11 21:59:18;;;;;;;6.65;2.20;;;;;;;;;;10304752;28;20022;-80
2023/09/11 22:04:18;;;;;;;3.55;2.13;;;;;;;;;;10328276;28;20054;-70
2023/09/11 22:09:18;;;;;;;10.27;3.27;;;;;;;;;;10309443;28;20034;-71
2023/09/11 22:14:18;;;;;;;6.47;3.00;;;;;;;;;;10309518;28;20014;-71
2023/09/11 22:19:20;;;;;;;8.20;2.35;;;;;;;;;;10309250;28;20034;-74
2023/09/11 22:24:22;;;;;;;3.35;2.25;;;;;;;;;;10306343;28;20417;-75
2023/09/11 22:29:23;;;;;;;4.20;2.35;;;;;;;;;;10309487;28;20157;-77
2023/09/11 22:34:36;;;;;;;7.57;2.03;;;;;;;;;;10311670;28;20045;-81
2023/09/11 22:39:37;;;;;;;5.97;2.53;;;;;;;;;;10323021;28;20037;-74
2023/09/11 22:44:37;;;;;;;3.45;2.20;;;;;;;;;;10309086;28;20053;-74
2023/09/11 22:49:37;;;;;;;9.10;2.40;;;;;;;;;;10318125;28;20060;-75
2023/09/11 22:54:37;;;;;;;4.15;2.55;;;;;;;;;;10303261;28;20101;-74
2023/09/11 22:59:38;;;;;;;3.83;2.60;;;;;;;;;;10305645;28;20018;-79
2023/09/11 23:04:38;;;;;;;4.88;2.30;;;;;;;;;;10305768;28;20050;-79
2023/09/11 23:09:38;;;;;;;8.38;2.53;;;;;;;;;;10311321;28;20027;-75
2023/09/11 23:14:39;;;;;;;5.28;2.40;;;;;;;;;;10301922;28;20056;-74
2023/09/11 23:19:39;;;;;;;5.40;2.07;;;;;;;;;;10304010;28;20471;-78
2023/09/11 23:24:39;;;;;;;5.07;2.50;;;;;;;;;;10311890;28;20022;-73
2023/09/11 23:29:40;;;;;;;7.57;3.13;;;;;;;;;;10302398;28;20034;-76
2023/09/11 23:34:40;;;;;;;5.22;2.88;;;;;;;;;;10304010;28;21191;-74
2023/09/11 23:39:41;;;;;;;4.55;2.60;;;;;;;;;;10304617;28;20340;-79
2023/09/11 23:44:44;;;;;;;2.90;2.60;;;;;;;;;;10306395;28;20129;-78
2023/09/11 23:49:44;;;;;;;7.63;2.63;;;;;;;;;;10306508;28;20030;-71
2023/09/11 23:54:45;;;;;;;4.88;2.38;;;;;;;;;;10307774;28;20513;-75
2023/09/11 23:59:46;;;;;;;5.03;2.38;;;;;;;;;;10292668;28;20520;-74
